createdAt,value
2022-08-25T00:02:59.632Z,12.50
2022-08-25T00:13:29.841Z,11.20
2022-08-25T00:23:58.644Z,12.10
2022-08-25T00:34:30.765Z,9.70
2022-08-25T00:45:00.620Z,9.80
2022-08-25T00:55:35.883Z,11.10
2022-08-25T01:06:06.817Z,11.10
2022-08-25T01:16:37.287Z,10.30
2022-08-25T01:27:07.449Z,12.90
2022-08-25T01:37:37.309Z,10.60
2022-08-25T01:48:07.987Z,13.80
2022-08-25T01:58:38.913Z,10.40
2022-08-25T02:09:10.889Z,12.90
2022-08-25T02:19:40.097Z,11.20
2022-08-25T02:30:10.770Z,11.90
2022-08-25T02:40:39.944Z,12.50
2022-08-25T02:51:11.236Z,9.50
2022-08-25T03:01:40.694Z,12.70
2022-08-25T03:12:11.338Z,8.40
2022-08-25T03:22:40.190Z,15.30
2022-08-25T03:33:09.180Z,8.60
2022-08-25T03:43:38.205Z,7.50
2022-08-25T03:54:08.698Z,7.30
2022-08-25T04:04:38.101Z,6.50
2022-08-25T04:15:08.000Z,10.10
2022-08-25T04:25:37.082Z,6.20
2022-08-25T04:36:11.924Z,8.40
2022-08-25T04:46:41.732Z,10.30
2022-08-25T04:57:10.949Z,9.70
2022-08-25T05:07:40.784Z,10.10
2022-08-25T05:18:09.821Z,11.00
2022-08-25T05:28:41.103Z,12.60
2022-08-25T05:39:10.331Z,11.30
2022-08-25T05:49:39.319Z,14.60
2022-08-25T06:00:10.843Z,15.20
2022-08-25T06:10:39.931Z,16.90
2022-08-25T06:21:14.609Z,12.00
2022-08-25T06:31:43.828Z,14.60
2022-08-25T06:42:12.899Z,17.00
2022-08-25T06:52:41.845Z,15.10
2022-08-25T07:03:10.821Z,17.10
2022-08-25T07:13:41.187Z,14.30
2022-08-25T07:24:12.832Z,17.30
2022-08-25T07:34:58.910Z,18.70
2022-08-25T07:45:31.308Z,15.10
2022-08-25T07:56:00.278Z,15.60
2022-08-25T08:06:30.497Z,17.00
2022-08-25T08:17:00.058Z,14.20
2022-08-25T08:27:29.152Z,15.70
2022-08-25T08:37:57.955Z,21.20
2022-08-25T08:48:51.041Z,16.10
2022-08-25T08:59:29.921Z,23.90
2022-08-25T09:10:00.162Z,17.20
2022-08-25T09:20:44.840Z,32.80
2022-08-25T09:31:20.257Z,24.50
2022-08-25T09:41:52.986Z,21.70
2022-08-25T09:52:27.994Z,20.50
2022-08-25T10:03:12.197Z,20.20
2022-08-25T10:13:45.555Z,24.10
2022-08-25T10:24:15.749Z,21.70
2022-08-25T10:34:51.588Z,18.40
2022-08-25T10:45:44.956Z,19.50
2022-08-25T10:56:18.830Z,24.10
2022-08-25T11:06:54.731Z,24.10
2022-08-25T11:17:27.003Z,18.00
2022-08-25T11:28:05.381Z,20.90
2022-08-25T11:38:49.652Z,18.80
2022-08-25T11:49:41.021Z,18.60
2022-08-25T12:00:15.141Z,23.30
2022-08-25T12:11:06.108Z,21.90
2022-08-25T12:21:39.274Z,18.00
2022-08-25T12:32:41.418Z,20.70
2022-08-25T12:43:15.100Z,14.00
2022-08-25T12:53:52.760Z,16.20
2022-08-25T13:04:44.209Z,15.30
2022-08-25T13:15:16.299Z,12.80
2022-08-25T13:25:51.852Z,15.90
2022-08-25T13:36:40.445Z,15.80
2022-08-25T13:47:12.508Z,14.30
2022-08-25T13:57:46.227Z,17.90
2022-08-25T14:18:53.877Z,16.40
2022-08-25T14:29:25.269Z,15.60
2022-08-25T14:39:55.003Z,19.20
2022-08-25T14:50:24.757Z,19.70
2022-08-25T15:00:54.459Z,17.40
2022-08-25T15:11:23.441Z,17.00
2022-08-25T15:21:52.616Z,19.10
2022-08-25T15:32:21.599Z,19.80
2022-08-25T15:42:52.725Z,17.80
2022-08-25T15:53:21.714Z,18.10
2022-08-25T16:03:51.431Z,17.00
2022-08-25T16:14:20.448Z,18.80
2022-08-25T16:24:49.562Z,23.80
2022-08-25T16:35:18.606Z,24.90
2022-08-25T16:45:47.374Z,12.00
2022-08-25T16:56:16.520Z,20.40
2022-08-25T17:06:51.629Z,19.70
2022-08-25T17:17:21.749Z,16.80
2022-08-25T17:27:56.044Z,22.40
2022-08-25T17:38:28.401Z,13.60
2022-08-25T17:48:57.758Z,15.80
2022-08-25T17:59:28.013Z,20.20
2022-08-25T18:10:02.215Z,16.20
2022-08-25T18:20:31.244Z,18.70
2022-08-25T18:31:00.183Z,15.10
2022-08-25T18:41:30.380Z,15.90
2022-08-25T18:51:59.472Z,21.40
2022-08-25T19:02:28.979Z,17.50
2022-08-25T19:12:58.832Z,21.60
2022-08-25T19:23:39.021Z,17.60
2022-08-25T19:34:10.596Z,15.70
2022-08-25T19:44:41.052Z,15.80
2022-08-25T19:55:11.957Z,16.20
2022-08-25T20:05:41.822Z,18.20
2022-08-25T20:16:11.926Z,16.20
2022-08-25T20:26:41.147Z,20.40
2022-08-25T20:37:12.377Z,15.40
2022-08-25T20:47:42.061Z,19.20
2022-08-25T20:58:11.107Z,15.80
2022-08-25T21:08:46.597Z,13.90
2022-08-25T21:19:16.705Z,10.60
2022-08-25T21:29:55.526Z,18.50
2022-08-25T21:40:25.898Z,14.10
2022-08-25T21:51:04.079Z,13.70
2022-08-25T22:01:35.430Z,13.40
2022-08-25T22:12:05.266Z,10.50
2022-08-25T22:22:34.548Z,8.90
2022-08-25T22:33:03.863Z,10.80
2022-08-25T22:43:32.730Z,10.90
2022-08-25T22:54:02.873Z,16.10
2022-08-25T23:04:32.892Z,11.70
2022-08-25T23:15:02.177Z,13.00
2022-08-25T23:25:31.677Z,14.80
2022-08-25T23:36:08.536Z,6.50
2022-08-25T23:46:39.468Z,17.60
2022-08-25T23:57:08.800Z,12.10
